Laramie, WY

9:47 AM MDT on August 21, 2014 (GMT -0600)
Laramie Regional | Change Station
CLOSE
Current Station
Airport
Location: Laramie,
Elevation: 7270 ft
Nearby Weather Stations

Elev 7270 ft 41.32 °N, 105.67 °W | Updated 54 minutes ago

Clear
Clear
60 °F
Feels Like 60 °F
N
12
Wind Variable Wind from SW

Today
High -- | Low -- °F
--% Chance of Precip.
Yesterday
High -- | Low -- °F
Precip. -- in
6:17 AM 7:52 PM
Waning Crescent, 13% visible
Pressure 29.93 in
Visibility 10.0 miles
Clouds Clear
Dew Point 44 °F
Humidity 55%
Rainfall 0.00 in
Snow Depth 0 in
UV 3 out of 12
Pollen 10.30 out of 12
Air Quality Not available.
Flu Activity Not available.
METAR KLAR 211453Z AUTO 22010KT 10SM CLR 16/07 A3022 RMK AO2 SLP135 T01560067 50008

More Conditions Fewer Conditions

Pressure 29.93 in
Visibility 10.0 miles
Clouds Clear
Dew Point 44 °F
Humidity 55%
Rainfall 0.00 in
Snow Depth 0 in
UV 3 out of 12
Pollen 10.30 out of 12
Air Quality Not available.
Flu Activity Not available.
METAR KLAR 211453Z AUTO 22010KT 10SM CLR 16/07 A3022 RMK AO2 SLP135 T01560067 50008

More Conditions Fewer Conditions

10-Day Weather Forecast

Almanac

Astronomy

Aug. 21, 2014 Rise Set
Actual Time 6:17 AM MDT 7:52 PM MDT
Civil Twilight 5:48 AM MDT 8:21 PM MDT
Nautical Twilight 5:13 AM MDT 8:56 PM MDT
Astronomical Twilight 4:35 AM MDT 9:34 PM MDT
Moon 2:49 AM MDT 5:23 PM MDT
Length of Visible Light 14h 33m
Length of Day
13h 34m
Tomorrow will be 2m 31s shorter.
Waning Crescent, 13% of the Moon is Illuminated
Today
Waning Crescent
Aug 25
New
Sep 2
First Quarter
Sep 8
Full
Sep 15
Last Quarter

Today's Extremes

State Highs State Lows

Community

WunderPhotos

Upload Photos

1,745,949 photos uploaded!

Nearby

Snow Depth

Station Depth Elevation
Crow Creek 0 in 8330 ft
Whiskey Park 0 in 8950 ft
Brooklyn Lake 0 in 10220 ft
Sand Lake 0 in 10050 ft
South Brush Creek 0 in 8440 ft

Earthquake Activity

City Distance Mag. Time & Date
No recent earthquake activity has been reported nearby.
Minimum magnitude displayed is 2.5.

Coastal Water Temperatures

Place Temperature
No Stations Reporting

Nearby Weather Stations